Airfield :
LOGIN :

Register | Disclaimer

   EN    FR    IT 

 










Legend :    VFR   Marginal VFR   IFR   Intensive IFR   Very Intensive IFR
Visi :
Ceiling :
>= 8 km
>= 3000ft
5 to 8 km
1000 to 3000 ft
1500m to 5 km
500 to 1000 ft
800 to 1500m
200 to 500 ft
< 800m
< 200 ft
Symbols :   Thunderstorms  Fog  Heavy snow  Heavy precipitations  Wind > 20 kt
SIGMETs :     Misc.  Thunderstorms  Icing  Turbulence  Mountain Waves  Volcanic Ashes






- Airport Elevation : 143 ft


LGEL - Elefsis

CURRENT METAR :
  • 042120Z /////KT 9999 FEW030 27/19 Q1008

EXPIRED METARs :
  • 042050Z /////KT 9999 FEW030 28/19 Q1008
  • 042020Z /////KT 9999 FEW030 28/19 Q1008
  • 041950Z /////KT 9999 FEW030 28/19 Q1008
  • 041920Z /////KT 9999 FEW030 29/19 Q1008
  • 041850Z /////KT 9999 FEW030 29/19 Q1008
  • 041820Z /////KT 9999 FEW030 29/19 Q1008

TAF TAF LGEL
Valid from the 04 at 18:00 until the 05 at 18:00 UTC


041700Z 0418/0518 VRB05KT 9999 FEW025 SCT070
BECMG 0505/0507 36010KT
PROB40
TEMPO 0509/0515 5000 TSRA FEW018CB SCT020 BKN070



MET'MAP, your aeronautical weather chart ! - Copyright ORBIFLY December 2007 - Disclaimer

ORBIFLY MET'MAP TEAM :

Programming & Development : Alexandra Zaïnal
Concept & original design : Baudouin d'Aumeries
Assistance for programming : Marc-Olivier Méhu
Technical & hardware support : Manuel Goepfert

Contact : metmap@orbifly.com




SOURCES & CREDITS :

   NOAA